Flight Track Log - Related Links

Times and Time Zones

All times are in EST time to prevent confusion due to time zone crossing. See the FDX1573 flight status page for this flight to view local times or setup timezone preferences in your user account.

Time Position Orientation Groundspeed Altitude Reporting Facility
EST Latitude Longitude Course Direction KTS MPH feet Rate Location/Type
Tue 05:52:59 AM 35.0667 -89.9833 270° West 177 204 1,100  Level Anchorage Center
Tue 05:54:05 AM 35.0667 -90.0667 270° West 233 268 3,400 2,810 Climbing Anchorage Center
Tue 05:55:05 AM 35.0667 -90.1667 278° West 262 302 7,000 3,396 Climbing Anchorage Center
Tue 05:55:51 AM 35.0742 -90.2328 275° West 269 310 9,400 2,264 Climbing Memphis Center
Tue 05:56:51 AM 35.0803 -90.3267 294° West 284 327 11,000 1,450 Climbing Memphis Center
Tue 05:57:51 AM 35.1158 -90.4256 300° West 314 361 12,300 2,100 Climbing Memphis Center
Tue 05:58:51 AM 35.1678 -90.5350 299° West 351 404 15,200 2,400 Climbing Memphis Center
Tue 05:59:51 AM 35.2178 -90.6469 300° West 378 435 17,100 1,950 Climbing Memphis Center
Tue 06:00:51 AM 35.2717 -90.7614 299° West 389 448 19,100 1,950 Climbing Memphis Center
Tue 06:01:51 AM 35.3256 -90.8814 298° West 396 456 21,000 1,750 Climbing Memphis Center
Tue 06:02:51 AM 35.3792 -91.0039 301° West 401 461 22,600 1,550 Climbing Memphis Center
Tue 06:03:51 AM 35.4389 -91.1267 298° West 413 475 24,100 1,400 Climbing Memphis Center
Tue 06:04:51 AM 35.5006 -91.2675 298° West 420 483 25,400 1,300 Climbing Memphis Center
Tue 06:05:51 AM 35.5581 -91.3983 296° West 430 495 26,700 1,250 Climbing Memphis Center
Tue 06:06:51 AM 35.6108 -91.5317 300° West 430 495 27,900 1,400 Climbing Memphis Center
Tue 06:07:51 AM 35.6742 -91.6681 298° West 435 501 29,500 1,950 Climbing Memphis Center
Tue 06:08:51 AM 35.7311 -91.7994 298° West 435 501 31,800 2,000 Climbing Memphis Center
Tue 06:09:51 AM 35.7861 -91.9258 298° West 435 501 33,500 1,100 Climbing Memphis Center
Tue 06:10:51 AM 35.8386 -92.0469 299° West 418 481 34,000 250 Climbing Memphis Center
Tue 06:11:51 AM 35.8933 -92.1711 298° West 410 472 34,000  Level Memphis Center
Tue 06:12:51 AM 35.9456 -92.2928 298° West 410 472 34,000  Level Memphis Center
Tue 06:13:51 AM 36.0000 -92.4172 298° West 410 472 34,000  Level Memphis Center
Tue 06:14:51 AM 36.0542 -92.5419 298° West 410 472 34,000  Level Memphis Center
Tue 06:15:51 AM 36.1081 -92.6667 297° West 410 472 34,000  Level Memphis Center
Tue 06:16:51 AM 36.1600 -92.7914 298° West 410 472 34,000  Level Memphis Center
Tue 06:17:51 AM 36.2158 -92.9217 297° West 415 478 34,000  Level Memphis Center
Tue 06:18:51 AM 36.2672 -93.0444 296° West 415 478 34,000  Level Memphis Center
Tue 06:19:51 AM 36.3147 -93.1644 299° West 421 484 34,000  Level Memphis Center
Tue 06:20:51 AM 36.3703 -93.2900 298° West 421 484 34,000  Level Memphis Center
Tue 06:23:11 AM 36.5036 -93.6017 295° West 406 467 34,000  Level Kansas City Center
Tue 06:24:11 AM 36.5525 -93.7331 298° West 411 473 34,000  Level Kansas City Center
Tue 06:25:11 AM 36.6056 -93.8567 297° West 416 479 34,000  Level Kansas City Center
Tue 06:26:11 AM 36.6583 -93.9856 297° West 416 479 34,000  Level Kansas City Center
Tue 06:27:11 AM 36.7111 -94.1175 297° West 422 486 34,000  Level Kansas City Center
Tue 06:28:11 AM 36.7636 -94.2467 297° West 422 486 34,000  Level Kansas City Center
Tue 06:29:11 AM 36.8181 -94.3789 293° West 422 486 34,000  Level Kansas City Center
Tue 06:30:11 AM 36.8639 -94.5111 291° West 422 486 34,000  Level Kansas City Center
Tue 06:31:11 AM 36.9056 -94.6464 291° West 422 486 34,000  Level Kansas City Center
Tue 06:32:11 AM 36.9469 -94.7814 291° West 417 480 34,000  Level Kansas City Center
Tue 06:33:11 AM 36.9883 -94.9169 291° West 417 480 34,000  Level Kansas City Center
Tue 06:34:11 AM 37.0294 -95.0497 290° West 417 480 34,000  Level Kansas City Center
Tue 06:35:11 AM 37.0706 -95.1881 289° West 412 474 34,000  Level Kansas City Center
Tue 06:36:11 AM 37.1072 -95.3211 292° West 412 474 34,000  Level Kansas City Center
Tue 06:37:11 AM 37.1503 -95.4544 290° West 412 474 34,000  Level Kansas City Center
Tue 06:38:11 AM 37.1886 -95.5906 290° West 412 474 34,000 -1,100 Level Kansas City Center
Tue 06:39:11 AM 37.2269 -95.7242 291° West 412 474 31,800 -3,150 Descending Kansas City Center
Tue 06:40:11 AM 37.2672 -95.8578 290° West 412 474 27,700 -3,400 Descending Kansas City Center
Tue 06:41:11 AM 37.3072 -95.9969 289° West 412 474 25,000 -2,650 Descending Kansas City Center
Tue 06:42:11 AM 37.3453 -96.1336 290° West 412 474 22,400 -2,550 Descending Kansas City Center
Tue 06:43:11 AM 37.3808 -96.2572 289° West 401 461 19,900 -2,550 Descending Kansas City Center
Tue 06:44:11 AM 37.4167 -96.3861 284° West 395 455 17,300 -2,563 Descending Kansas City Center
Tue 06:44:54 AM 37.4358 -96.4833 290° West 388 447 15,500 -2,673 Descending Kansas City Center
Tue 06:46:01 AM 37.4772 -96.6258 289° West 377 434 12,400 -1,937 Descending Kansas City Center
Tue 06:47:01 AM 37.5086 -96.7392 289° West 357 411 11,400 -942 Descending Kansas City Center
Tue 06:48:02 AM 37.5358 -96.8394 291° West 302 348 10,500 -992 Descending Kansas City Center
Tue 06:49:02 AM 37.5653 -96.9347 289° West 284 327 9,400 -1,339 Descending Kansas City Center
Tue 06:50:03 AM 37.5883 -97.0194 289° West 271 312 7,800 -1,623 Descending Kansas City Center
Tue 06:51:04 AM 37.6117 -97.1067 290° West 265 305 6,100 -1,934 Descending Kansas City Center
Tue 06:52:04 AM 37.6369 -97.1942 296° West 261 300 3,900 -1,537 Descending Kansas City Center
Tue 06:53:05 AM 37.6703 -97.2819 307° West 276 318 3,000 -446 Descending Kansas City Center
Tue 06:54:05 AM 37.7103 -97.3489 295° West 234 269 3,000 -50 Level Kansas City Center
Tue 06:55:06 AM 37.7300 -97.4022 207° Southwest 155 178 2,900 -344 Descending Kansas City Center
Tue 06:56:07 AM 37.7025 -97.4197 196° South 110 127 2,300 -595 Descending Kansas City Center
Tue 06:57:07 AM 37.6708 -97.4314 237° Southwest 116 133 1,700 -387 Descending Kansas City Center
Tue 06:58:11 AM 37.6578 -97.4572 223° Southwest 99 114 1,500 4,500 Descending Kansas City Center
Tue 06:59:11 AM 37.6361 -97.4825 93° East 99 114 11,000 9,500 Climbing Kansas City Center
Tue 07:06:49 AM 37.6333 -97.4167 322° Northwest  Level FlightAware Approximate
Tue 07:07:49 AM 37.7144 -97.4968 322° Northwest  Level Estimated

Login

Don't have an account? Register now (free) for customized features, flight alerts, and more!